ZTL Weather Bulletin
Prepared: 7/04/2015 06:20 AM by: MW valid for 9 hours
FOR ATC PLANNING PURPOSES
An upper-level low will continue to bring numerous showers/thunderstorms over N GA/AL through the period. Cells will move to the east at 30-40kts, and will eventually move into SC by 13z. thereafter, expect a gradual weakening in storm intensity and coverage across all of ZTL until scattered to isolated thunderstorms redevelop across all of the airspace 18-21z. Expect mostly low-VFR conditions with patchy MVFR ceilings outside of convection. Surface winds will be west to southwest at 5-15kts with gusts to 20kts over SC/NC. Flight Hazards outside of convection: LGT Rime Icing from 140-FL240 over all ZTL. Altimeters will be above 29.92ins over all of ZTL. Ceilings below 050 are expected in all ZTL areas.

Restricted Area Convection: R2102...Thru PD. R3002...After 14z. R3004...Thru PD.
FTUS80 KATL 041139
KATL 041137Z 0412/0518 25010KT P6SM -SHRA SCT030 OVC070
     FM041500 26010G17KT P6SM -SHRA SCT030 BKN050
     FM041800 26012G20KT P6SM -SHRA SCT035 BKN040
      TEMPO 0420/0424 4SM TSRA BR BKN025CB
     FM050000 28003KT P6SM -SHRA OVC040
     FM050900 27003KT P6SM BKN060 PROB30 0509/0512 -SHRA BKN040
     FM051200 27003KT P6SM -SHRA SCT030 BKN060
Remark: ISOLATED TS EXPECTED ALL QUADS THRU PERIOD.
FTUS42 KGSP 041125
TAFCLT
TAF
KCLT 041125Z 0412/0512 24013G18KT P6SM FEW025 BKN110
      TEMPO 0412/0416 P6SM -SHRA BKN030
     FM041800 24014G17KT P6SM SCT040 BKN070
     FM042000 25015G20KT P6SM VCSH SCT040 BKN100 PROB30 0421/0424
      4SM TSRA BKN040CB
     FM050200 22005KT P6SM BKN110 OVC250=

Remark: ISOLATED TS POSSIBLE ALL QUADS AFTER 16Z.
12-18 Hour Forecast Map
Weather Map
Convective Gate Forecast
Convective Gate Forecast

Weather Briefing
Go to your local forecasts
Radar Mosaic
View radar images
CCFP
Go to the Collaborative Convective Forecast Product (CCFP)
CWAs
View Center Weather Advisories
Aviation Weather Center

ATL products

TDA
TRACON BRF

Convection Gate FCST

Vertical Wind Profile (RAP)

Icing Gate FCST
Atlanta Observations
 

CLT products

TDA

TRACON BRF

Convection Gate FCST

Vertical Wind Profile (RAP)

Icing Gate FCST
Charlotte Observations



USA.gov is the U.S. government's official web portal to all federal, state and local government web resources and services.